sensor_id;sensor_type;location;lat;lon;timestamp;pressure;altitude;pressure_sealevel;temperature;humidity
20909;BME280;10614;53.198;6.570;2023-11-18T00:01:56;102425.44;;;2.33;100.00
20909;BME280;10614;53.198;6.570;2023-11-18T00:03:59;102410.47;;;2.20;100.00
20909;BME280;10614;53.198;6.570;2023-11-18T00:06:01;102385.03;;;2.05;100.00
20909;BME280;10614;53.198;6.570;2023-11-18T00:08:06;102384.22;;;2.08;100.00
20909;BME280;10614;53.198;6.570;2023-11-18T00:10:08;102422.72;;;2.27;100.00
20909;BME280;10614;53.198;6.570;2023-11-18T00:12:12;102376.13;;;1.93;100.00
20909;BME280;10614;53.198;6.570;2023-11-18T00:14:15;102396.38;;;2.09;100.00
20909;BME280;10614;53.198;6.570;2023-11-18T00:16:19;102390.94;;;1.97;100.00
20909;BME280;10614;53.198;6.570;2023-11-18T00:18:23;102427.66;;;2.15;100.00
20909;BME280;10614;53.198;6.570;2023-11-18T00:20:25;102356.81;;;1.80;100.00
20909;BME280;10614;53.198;6.570;2023-11-18T02:14:26;102401.44;;;2.03;100.00
20909;BME280;10614;53.198;6.570;2023-11-18T02:16:29;102390.78;;;1.89;100.00
20909;BME280;10614;53.198;6.570;2023-11-18T02:18:31;102409.28;;;2.04;100.00
20909;BME280;10614;53.198;6.570;2023-11-18T02:20:35;102403.94;;;1.98;100.00
20909;BME280;10614;53.198;6.570;2023-11-18T02:22:37;102388.16;;;1.89;100.00
20909;BME280;10614;53.198;6.570;2023-11-18T02:24:39;102403.22;;;2.05;100.00
20909;BME280;10614;53.198;6.570;2023-11-18T02:26:43;102384.84;;;1.96;100.00
20909;BME280;10614;53.198;6.570;2023-11-18T02:28:46;102332.34;;;1.68;100.00
20909;BME280;10614;53.198;6.570;2023-11-18T02:30:50;102394.44;;;1.99;100.00
20909;BME280;10614;53.198;6.570;2023-11-18T02:32:59;102407.59;;;2.08;100.00
20909;BME280;10614;53.198;6.570;2023-11-18T02:35:09;102389.94;;;1.92;100.00
20909;BME280;10614;53.198;6.570;2023-11-18T02:37:12;102348.97;;;1.77;100.00
20909;BME280;10614;53.198;6.570;2023-11-18T02:39:20;102407.72;;;2.14;100.00
20909;BME280;10614;53.198;6.570;2023-11-18T02:41:24;102366.59;;;1.92;100.00
20909;BME280;10614;53.198;6.570;2023-11-18T02:43:32;102375.38;;;1.97;100.00
20909;BME280;10614;53.198;6.570;2023-11-18T02:45:37;102397.31;;;2.13;100.00
20909;BME280;10614;53.198;6.570;2023-11-18T02:47:40;102379.09;;;2.11;100.00
20909;BME280;10614;53.198;6.570;2023-11-18T02:49:44;102385.16;;;2.11;100.00
20909;BME280;10614;53.198;6.570;2023-11-18T02:51:46;102345.03;;;1.96;100.00
20909;BME280;10614;53.198;6.570;2023-11-18T02:53:49;102344.25;;;2.01;100.00
20909;BME280;10614;53.198;6.570;2023-11-18T02:55:51;102323.34;;;1.92;100.00
20909;BME280;10614;53.198;6.570;2023-11-18T02:57:54;102354.03;;;2.13;100.00
20909;BME280;10614;53.198;6.570;2023-11-18T02:59:58;102362.09;;;2.28;100.00
20909;BME280;10614;53.198;6.570;2023-11-18T03:02:02;102343.66;;;2.15;100.00
20909;BME280;10614;53.198;6.570;2023-11-18T03:04:04;102378.69;;;2.35;100.00
20909;BME280;10614;53.198;6.570;2023-11-18T03:06:06;102347.31;;;2.24;100.00
20909;BME280;10614;53.198;6.570;2023-11-18T03:08:11;102356.00;;;2.26;100.00
20909;BME280;10614;53.198;6.570;2023-11-18T03:10:14;102360.34;;;2.26;100.00
20909;BME280;10614;53.198;6.570;2023-11-18T03:12:21;102308.88;;;2.06;100.00
20909;BME280;10614;53.198;6.570;2023-11-18T03:14:24;102351.75;;;2.30;100.00
20909;BME280;10614;53.198;6.570;2023-11-18T03:16:27;102345.69;;;2.29;100.00
20909;BME280;10614;53.198;6.570;2023-11-18T03:18:30;102363.22;;;2.43;100.00
20909;BME280;10614;53.198;6.570;2023-11-18T03:20:34;102306.38;;;2.13;100.00
20909;BME280;10614;53.198;6.570;2023-11-18T06:20:43;102237.25;;;2.74;100.00
20909;BME280;10614;53.198;6.570;2023-11-18T06:22:45;102228.59;;;2.75;100.00
20909;BME280;10614;53.198;6.570;2023-11-18T06:24:48;102205.84;;;2.62;100.00
20909;BME280;10614;53.198;6.570;2023-11-18T06:26:52;102237.28;;;2.77;100.00
20909;BME280;10614;53.198;6.570;2023-11-18T06:28:56;102159.59;;;2.38;100.00
20909;BME280;10614;53.198;6.570;2023-11-18T06:30:56;102209.38;;;2.67;100.00
20909;BME280;10614;53.198;6.570;2023-11-18T06:32:58;102195.47;;;2.63;100.00
20909;BME280;10614;53.198;6.570;2023-11-18T06:35:09;102210.31;;;2.70;100.00
20909;BME280;10614;53.198;6.570;2023-11-18T06:37:16;102176.31;;;2.57;100.00
20909;BME280;10614;53.198;6.570;2023-11-18T06:39:18;102230.50;;;2.90;100.00
20909;BME280;10614;53.198;6.570;2023-11-18T06:41:22;102234.88;;;2.92;100.00
20909;BME280;10614;53.198;6.570;2023-11-18T06:43:26;102191.25;;;2.71;100.00
20909;BME280;10614;53.198;6.570;2023-11-18T06:45:36;102223.69;;;2.95;100.00
20909;BME280;10614;53.198;6.570;2023-11-18T06:47:38;102200.94;;;2.82;100.00
20909;BME280;10614;53.198;6.570;2023-11-18T06:49:43;102184.34;;;2.73;100.00
20909;BME280;10614;53.198;6.570;2023-11-18T06:51:48;102187.91;;;2.79;100.00
20909;BME280;10614;53.198;6.570;2023-11-18T06:53:54;102208.88;;;2.92;100.00
20909;BME280;10614;53.198;6.570;2023-11-18T06:55:58;102214.97;;;2.93;100.00
20909;BME280;10614;53.198;6.570;2023-11-18T06:58:01;102212.34;;;2.91;100.00
20909;BME280;10614;53.198;6.570;2023-11-18T07:00:04;102186.13;;;2.74;100.00
20909;BME280;10614;53.198;6.570;2023-11-18T07:02:10;102186.19;;;2.79;100.00
20909;BME280;10614;53.198;6.570;2023-11-18T07:04:12;102213.22;;;2.92;100.00
20909;BME280;10614;53.198;6.570;2023-11-18T07:06:17;102242.91;;;3.08;100.00
20909;BME280;10614;53.198;6.570;2023-11-18T07:08:22;102217.56;;;2.93;100.00
20909;BME280;10614;53.198;6.570;2023-11-18T07:10:26;102211.44;;;2.89;100.00
20909;BME280;10614;53.198;6.570;2023-11-18T07:12:28;102226.28;;;2.96;100.00
20909;BME280;10614;53.198;6.570;2023-11-18T07:14:30;102261.22;;;3.14;100.00
20909;BME280;10614;53.198;6.570;2023-11-18T07:16:34;102251.66;;;3.13;100.00
20909;BME280;10614;53.198;6.570;2023-11-18T07:18:35;102232.38;;;2.99;100.00
20909;BME280;10614;53.198;6.570;2023-11-18T07:20:38;102246.41;;;3.10;100.00
20909;BME280;10614;53.198;6.570;2023-11-18T07:22:42;102260.34;;;3.15;100.00
20909;BME280;10614;53.198;6.570;2023-11-18T07:24:50;102259.50;;;3.17;100.00
20909;BME280;10614;53.198;6.570;2023-11-18T07:26:56;102234.25;;;3.07;100.00
20909;BME280;10614;53.198;6.570;2023-11-18T07:29:01;102233.38;;;3.07;100.00
20909;BME280;10614;53.198;6.570;2023-11-18T07:31:04;102248.28;;;3.20;100.00
20909;BME280;10614;53.198;6.570;2023-11-18T07:33:09;102180.19;;;2.86;100.00
20909;BME280;10614;53.198;6.570;2023-11-18T07:35:12;102197.63;;;2.93;100.00
20909;BME280;10614;53.198;6.570;2023-11-18T07:37:15;102238.84;;;3.28;100.00
20909;BME280;10614;53.198;6.570;2023-11-18T07:39:20;102211.84;;;3.20;100.00
20909;BME280;10614;53.198;6.570;2023-11-18T07:41:31;102206.63;;;3.20;100.00
20909;BME280;10614;53.198;6.570;2023-11-18T07:43:38;102213.59;;;3.23;100.00
20909;BME280;10614;53.198;6.570;2023-11-18T07:45:43;102220.66;;;3.31;100.00
20909;BME280;10614;53.198;6.570;2023-11-18T07:47:54;102227.69;;;3.38;100.00
20909;BME280;10614;53.198;6.570;2023-11-18T07:49:57;102222.44;;;3.37;100.00
20909;BME280;10614;53.198;6.570;2023-11-18T07:51:58;102220.69;;;3.34;100.00
20909;BME280;10614;53.198;6.570;2023-11-18T07:54:01;102236.47;;;3.47;100.00
20909;BME280;10614;53.198;6.570;2023-11-18T07:56:06;102242.56;;;3.50;100.00
20909;BME280;10614;53.198;6.570;2023-11-18T07:58:41;102214.63;;;3.37;100.00
20909;BME280;10614;53.198;6.570;2023-11-18T08:00:46;102241.75;;;3.54;100.00
20909;BME280;10614;53.198;6.570;2023-11-18T08:34:23;102171.47;;;3.54;100.00
20909;BME280;10614;53.198;6.570;2023-11-18T08:36:26;102191.59;;;3.71;100.00
20909;BME280;10614;53.198;6.570;2023-11-18T08:38:27;102161.94;;;3.56;100.00
20909;BME280;10614;53.198;6.570;2023-11-18T08:40:30;102182.06;;;3.74;100.00
20909;BME280;10614;53.198;6.570;2023-11-18T08:42:35;102139.38;;;3.57;100.00
20909;BME280;10614;53.198;6.570;2023-11-18T08:44:36;102155.09;;;3.66;100.00
20909;BME280;10614;53.198;6.570;2023-11-18T08:46:39;102148.13;;;3.65;100.00
20909;BME280;10614;53.198;6.570;2023-11-18T08:48:42;102152.50;;;3.69;100.00
20909;BME280;10614;53.198;6.570;2023-11-18T08:50:47;102144.75;;;3.72;100.00
20909;BME280;10614;53.198;6.570;2023-11-18T08:52:53;102136.91;;;3.74;100.00
20909;BME280;10614;53.198;6.570;2023-11-18T08:54:58;102142.22;;;3.83;100.00
20909;BME280;10614;53.198;6.570;2023-11-18T08:57:17;102142.22;;;3.86;100.00
20909;BME280;10614;53.198;6.570;2023-11-18T08:59:26;102109.09;;;3.70;100.00
20909;BME280;10614;53.198;6.570;2023-11-18T09:01:32;102109.13;;;3.71;100.00
20909;BME280;10614;53.198;6.570;2023-11-18T09:03:34;102100.41;;;3.69;100.00
20909;BME280;10614;53.198;6.570;2023-11-18T09:05:37;102130.97;;;3.90;100.00
20909;BME280;10614;53.198;6.570;2023-11-18T09:07:41;102124.94;;;3.93;100.00
20909;BME280;10614;53.198;6.570;2023-11-18T09:09:48;102097.94;;;3.83;100.00
20909;BME280;10614;53.198;6.570;2023-11-18T09:11:57;102118.88;;;3.97;100.00
20909;BME280;10614;53.198;6.570;2023-11-18T09:14:02;102096.19;;;3.80;100.00
20909;BME280;10614;53.198;6.570;2023-11-18T09:16:05;102118.03;;;3.99;100.00
20909;BME280;10614;53.198;6.570;2023-11-18T09:18:09;102113.72;;;4.05;100.00
20909;BME280;10614;53.198;6.570;2023-11-18T09:20:10;102085.88;;;3.97;100.00
20909;BME280;10614;53.198;6.570;2023-11-18T09:22:13;102066.72;;;3.88;100.00
20909;BME280;10614;53.198;6.570;2023-11-18T09:24:17;102110.28;;;4.12;100.00
20909;BME280;10614;53.198;6.570;2023-11-18T09:26:19;102112.06;;;4.14;100.00
20909;BME280;10614;53.198;6.570;2023-11-18T09:28:23;102118.13;;;4.13;100.00
20909;BME280;10614;53.198;6.570;2023-11-18T09:30:29;102114.66;;;4.14;100.00
20909;BME280;10614;53.198;6.570;2023-11-18T09:32:34;102111.22;;;4.18;100.00
20909;BME280;10614;53.198;6.570;2023-11-18T09:34:36;102117.34;;;4.28;100.00
20909;BME280;10614;53.198;6.570;2023-11-18T09:36:46;102062.44;;;3.96;100.00
20909;BME280;10614;53.198;6.570;2023-11-18T09:39:20;102099.94;;;4.19;100.00
20909;BME280;10614;53.198;6.570;2023-11-18T10:18:48;102051.34;;;4.32;100.00
20909;BME280;10614;53.198;6.570;2023-11-18T10:35:05;102002.66;;;4.20;100.00
20909;BME280;10614;53.198;6.570;2023-11-18T10:37:09;101961.69;;;3.98;100.00
20909;BME280;10614;53.198;6.570;2023-11-18T10:50:47;101992.16;;;4.05;100.00
20909;BME280;10614;53.198;6.570;2023-11-18T13:58:13;101684.63;;;4.68;100.00
20909;BME280;10614;53.198;6.570;2023-11-18T14:00:17;101670.75;;;4.64;100.00
20909;BME280;10614;53.198;6.570;2023-11-18T14:02:23;101643.84;;;4.53;100.00
20909;BME280;10614;53.198;6.570;2023-11-18T14:04:27;101621.25;;;4.46;100.00
20909;BME280;10614;53.198;6.570;2023-11-18T14:06:30;101650.75;;;4.67;100.00
20909;BME280;10614;53.198;6.570;2023-11-18T14:08:32;101650.75;;;4.65;100.00
20909;BME280;10614;53.198;6.570;2023-11-18T14:10:35;101636.00;;;4.58;100.00
20909;BME280;10614;53.198;6.570;2023-11-18T14:12:38;101606.47;;;4.54;100.00
20909;BME280;10614;53.198;6.570;2023-11-18T14:14:42;101622.06;;;4.63;100.00
20909;BME280;10614;53.198;6.570;2023-11-18T14:16:43;101613.41;;;4.61;100.00
20909;BME280;10614;53.198;6.570;2023-11-18T14:18:46;101597.75;;;4.61;100.00
20909;BME280;10614;53.198;6.570;2023-11-18T14:38:11;101518.66;;;4.56;100.00
20909;BME280;10614;53.198;6.570;2023-11-18T14:40:13;101522.13;;;4.64;100.00
20909;BME280;10614;53.198;6.570;2023-11-18T14:42:14;101508.19;;;4.65;100.00
20909;BME280;10614;53.198;6.570;2023-11-18T14:44:16;101483.09;;;4.48;100.00
20909;BME280;10614;53.198;6.570;2023-11-18T14:46:18;101491.72;;;4.56;100.00
20909;BME280;10614;53.198;6.570;2023-11-18T14:48:18;101485.63;;;4.58;100.00
20909;BME280;10614;53.198;6.570;2023-11-18T14:50:21;101506.47;;;4.66;100.00
20909;BME280;10614;53.198;6.570;2023-11-18T14:52:24;101498.69;;;4.57;100.00
20909;BME280;10614;53.198;6.570;2023-11-18T14:54:27;101511.66;;;4.68;100.00
20909;BME280;10614;53.198;6.570;2023-11-18T14:56:30;101503.84;;;4.68;100.00
20909;BME280;10614;53.198;6.570;2023-11-18T14:58:32;101469.16;;;4.50;100.00
20909;BME280;10614;53.198;6.570;2023-11-18T15:00:34;101440.53;;;4.42;100.00
20909;BME280;10614;53.198;6.570;2023-11-18T15:09:07;101426.56;;;4.53;100.00
20909;BME280;10614;53.198;6.570;2023-11-18T15:11:13;101415.28;;;4.51;100.00
20909;BME280;10614;53.198;6.570;2023-11-18T16:12:01;101266.44;;;4.78;100.00
20909;BME280;10614;53.198;6.570;2023-11-18T16:14:06;101285.53;;;4.83;100.00
20909;BME280;10614;53.198;6.570;2023-11-18T16:16:09;101243.06;;;4.69;100.00
20909;BME280;10614;53.198;6.570;2023-11-18T16:18:16;101259.41;;;4.88;100.00
20909;BME280;10614;53.198;6.570;2023-11-18T16:20:21;101253.41;;;4.77;100.00
20909;BME280;10614;53.198;6.570;2023-11-18T16:22:24;101253.38;;;4.83;100.00
20909;BME280;10614;53.198;6.570;2023-11-18T16:24:26;101268.06;;;4.92;100.00
20909;BME280;10614;53.198;6.570;2023-11-18T16:26:29;101239.56;;;4.73;100.00
20909;BME280;10614;53.198;6.570;2023-11-18T16:28:33;101243.78;;;4.85;100.00
20909;BME280;10614;53.198;6.570;2023-11-18T16:30:35;101235.09;;;4.83;100.00
20909;BME280;10614;53.198;6.570;2023-11-18T16:32:37;101221.22;;;4.79;100.00
20909;BME280;10614;53.198;6.570;2023-11-18T16:34:40;101203.88;;;4.77;100.00
20909;BME280;10614;53.198;6.570;2023-11-18T16:36:42;101208.22;;;4.78;100.00
20909;BME280;10614;53.198;6.570;2023-11-18T16:38:45;101231.56;;;4.92;100.00
20909;BME280;10614;53.198;6.570;2023-11-18T16:40:46;101202.09;;;4.79;100.00
20909;BME280;10614;53.198;6.570;2023-11-18T18:02:05;101043.31;;;5.19;100.00
20909;BME280;10614;53.198;6.570;2023-11-18T18:04:08;101058.78;;;5.35;100.00
20909;BME280;10614;53.198;6.570;2023-11-18T18:06:11;101057.00;;;5.35;100.00
20909;BME280;10614;53.198;6.570;2023-11-18T18:08:13;101015.47;;;5.21;100.00
20909;BME280;10614;53.198;6.570;2023-11-18T18:10:15;101038.75;;;5.35;100.00
20909;BME280;10614;53.198;6.570;2023-11-18T18:42:41;100935.53;;;5.16;100.00
20909;BME280;10614;53.198;6.570;2023-11-18T18:49:03;100988.91;;;5.50;100.00
20909;BME280;10614;53.198;6.570;2023-11-18T18:59:47;100944.59;;;5.46;100.00
20909;BME280;10614;53.198;6.570;2023-11-18T19:34:23;100911.94;;;5.71;100.00
20909;BME280;10614;53.198;6.570;2023-11-18T19:36:25;100888.56;;;5.64;100.00
20909;BME280;10614;53.198;6.570;2023-11-18T19:38:27;100890.16;;;5.71;100.00
20909;BME280;10614;53.198;6.570;2023-11-18T19:40:30;100898.75;;;5.78;100.00
20909;BME280;10614;53.198;6.570;2023-11-18T19:42:32;100883.25;;;5.68;100.00
20909;BME280;10614;53.198;6.570;2023-11-18T19:44:34;100896.13;;;5.78;100.00
20909;BME280;10614;53.198;6.570;2023-11-18T19:46:37;100864.13;;;5.68;100.00
20909;BME280;10614;53.198;6.570;2023-11-18T19:48:39;100840.69;;;5.63;100.00
20909;BME280;10614;53.198;6.570;2023-11-18T19:50:43;100857.88;;;5.75;100.00
20909;BME280;10614;53.198;6.570;2023-11-18T20:31:53;100779.97;;;5.97;100.00
20909;BME280;10614;53.198;6.570;2023-11-18T21:02:11;100776.97;;;6.51;100.00
20909;BME280;10614;53.198;6.570;2023-11-18T21:04:13;100751.91;;;6.41;100.00
20909;BME280;10614;53.198;6.570;2023-11-18T21:06:17;100771.53;;;6.59;100.00
20909;BME280;10614;53.198;6.570;2023-11-18T21:08:20;100756.16;;;6.47;100.00
20909;BME280;10614;53.198;6.570;2023-11-18T21:10:23;100772.34;;;6.63;100.00
20909;BME280;10614;53.198;6.570;2023-11-18T21:12:25;100725.75;;;6.43;100.00
20909;BME280;10614;53.198;6.570;2023-11-18T21:14:27;100724.78;;;6.47;100.00
20909;BME280;10614;53.198;6.570;2023-11-18T21:16:29;100724.69;;;6.50;100.00
20909;BME280;10614;53.198;6.570;2023-11-18T21:18:47;100738.47;;;6.58;100.00
20909;BME280;10614;53.198;6.570;2023-11-18T21:20:50;100751.22;;;6.70;100.00
20909;BME280;10614;53.198;6.570;2023-11-18T21:22:53;100719.16;;;6.62;100.00
20909;BME280;10614;53.198;6.570;2023-11-18T21:24:58;100725.09;;;6.69;100.00
20909;BME280;10614;53.198;6.570;2023-11-18T21:27:01;100718.91;;;6.71;100.00
20909;BME280;10614;53.198;6.570;2023-11-18T21:29:03;100698.31;;;6.59;100.00
20909;BME280;10614;53.198;6.570;2023-11-18T21:31:06;100703.31;;;6.68;100.00
20909;BME280;10614;53.198;6.570;2023-11-18T21:33:07;100703.22;;;6.71;100.00
20909;BME280;10614;53.198;6.570;2023-11-18T21:35:11;100697.97;;;6.73;100.00
20909;BME280;10614;53.198;6.570;2023-11-18T21:37:14;100712.47;;;6.85;100.00
20909;BME280;10614;53.198;6.570;2023-11-18T21:39:16;100695.94;;;6.83;100.00
20909;BME280;10614;53.198;6.570;2023-11-18T22:03:07;100669.75;;;7.15;100.00
20909;BME280;10614;53.198;6.570;2023-11-18T22:05:11;100670.44;;;7.22;100.00
20909;BME280;10614;53.198;6.570;2023-11-18T22:07:13;100678.06;;;7.30;100.00
20909;BME280;10614;53.198;6.570;2023-11-18T23:23:28;100601.53;;;8.80;100.00
20909;BME280;10614;53.198;6.570;2023-11-18T23:32:06;100557.53;;;8.63;100.00
